createdAt,value
2022-08-17T00:01:21.064Z,75.56
2022-08-17T00:06:40.336Z,76.19
2022-08-17T00:12:03.859Z,76.18
2022-08-17T00:17:19.009Z,75.96
2022-08-17T00:22:38.207Z,75.93
2022-08-17T00:27:57.205Z,75.99
2022-08-17T00:33:17.014Z,76.37
2022-08-17T00:38:35.296Z,76.93
2022-08-17T00:43:54.279Z,77.22
2022-08-17T00:49:23.591Z,77.69
2022-08-17T00:54:32.801Z,78.23
2022-08-17T01:00:02.900Z,78.41
2022-08-17T01:05:11.211Z,78.82
2022-08-17T01:10:57.093Z,79.04
2022-08-17T01:16:00.523Z,79.26
2022-08-17T01:21:09.186Z,79.61
2022-08-17T01:26:28.754Z,79.37
2022-08-17T01:31:48.343Z,79.16
2022-08-17T01:37:07.295Z,79.43
2022-08-17T01:42:26.843Z,79.97
2022-08-17T01:47:46.310Z,79.91
2022-08-17T01:53:05.776Z,80.47
2022-08-17T02:03:53.123Z,81.25
2022-08-17T02:09:03.981Z,81.31
2022-08-17T02:14:23.152Z,81.62
2022-08-17T02:19:42.508Z,82.18
2022-08-17T02:25:02.562Z,82.76
2022-08-17T02:31:00.453Z,83.09
2022-08-17T02:35:39.972Z,83.61
2022-08-17T02:40:58.718Z,83.77
2022-08-17T02:46:18.223Z,84.02
2022-08-17T02:55:54.271Z,84.54
2022-08-17T03:00:10.769Z,84.54
2022-08-17T03:08:43.854Z,84.76
2022-08-17T03:13:00.363Z,84.99
2022-08-17T03:18:19.030Z,85.59
2022-08-17T03:23:32.750Z,85.79
2022-08-17T03:28:52.029Z,86.47
2022-08-17T03:34:11.290Z,86.61
2022-08-17T03:39:43.029Z,86.82
2022-08-17T03:48:03.926Z,86.9
2022-08-17T03:55:41.326Z,87.08
2022-08-17T04:04:02.369Z,87.07
2022-08-17T04:16:45.802Z,87.73
2022-08-17T04:22:04.936Z,87.81
2022-08-17T04:27:23.941Z,87.87
2022-08-17T04:32:59.270Z,88.16
2022-08-17T04:38:02.460Z,88.21
2022-08-17T04:43:21.808Z,88.03
2022-08-17T04:48:41.373Z,87.41
2022-08-17T04:54:00.414Z,86.99
2022-08-17T04:59:19.616Z,87.02
2022-08-17T05:04:38.418Z,85.9
2022-08-17T05:09:57.191Z,86.09
2022-08-17T05:15:16.206Z,85.9
2022-08-17T05:20:35.141Z,86.25
2022-08-17T05:25:53.916Z,85.83
2022-08-17T05:34:26.988Z,84.27
2022-08-17T05:38:55.501Z,83.84
2022-08-17T05:43:00.048Z,81.87
2022-08-17T05:47:10.701Z,79.98
2022-08-17T05:55:43.790Z,77.6
2022-08-17T05:57:54.047Z,75.98
2022-08-17T06:03:19.462Z,74.9
2022-08-17T06:08:27.442Z,72.76
2022-08-17T06:13:46.669Z,70.94
2022-08-17T06:19:05.711Z,71.82
2022-08-17T06:27:38.787Z,71.22
2022-08-17T06:35:02.741Z,67.93
2022-08-17T06:40:22.324Z,65.1
2022-08-17T06:45:41.920Z,63.82
2022-08-17T06:54:14.975Z,62.84
2022-08-17T07:01:39.182Z,59.5
2022-08-17T07:06:58.678Z,57.65
2022-08-17T07:12:17.656Z,57.85
2022-08-17T07:17:47.103Z,57.51
2022-08-17T07:22:59.593Z,57.87
2022-08-17T07:28:14.639Z,56.07
2022-08-17T07:33:33.533Z,54.42
2022-08-17T07:38:52.703Z,51.64
2022-08-17T07:44:11.797Z,49.72
2022-08-17T07:49:31.670Z,47.8
2022-08-17T07:58:04.342Z,46.15
2022-08-17T08:00:11.360Z,45.9
2022-08-17T08:05:48.658Z,43.28
2022-08-17T08:10:47.230Z,42.77
2022-08-17T08:16:06.599Z,41.08
2022-08-17T08:21:26.049Z,40.59
2022-08-17T08:26:45.658Z,39.22
2022-08-17T08:32:05.201Z,40.3
2022-08-17T08:37:32.830Z,41.16
2022-08-17T08:42:42.960Z,43.11
2022-08-17T08:48:05.230Z,41.12
2022-08-17T08:53:20.867Z,39.65
2022-08-17T08:58:41.524Z,40.98
2022-08-17T09:04:12.011Z,39.95
2022-08-17T09:09:18.135Z,39.71
2022-08-17T09:14:43.274Z,41.31
2022-08-17T09:19:56.916Z,42.2
2022-08-17T09:25:16.475Z,42.81
2022-08-17T09:30:35.401Z,40.27
2022-08-17T09:35:54.197Z,39.66
2022-08-17T09:41:13.571Z,38.55
2022-08-17T09:46:32.702Z,35.89
2022-08-17T09:51:52.018Z,36.06
2022-08-17T09:57:28.986Z,36.12
2022-08-17T10:02:30.497Z,37.64
2022-08-17T10:11:03.603Z,38.66
2022-08-17T10:23:46.208Z,40.88
2022-08-17T10:29:04.999Z,40.78
2022-08-17T10:34:24.454Z,40.57
2022-08-17T10:39:50.717Z,40.4
2022-08-17T10:45:15.223Z,38.86
2022-08-17T10:50:22.172Z,38.11
2022-08-17T10:55:41.282Z,38.28
2022-08-17T11:01:00.238Z,38.15
2022-08-17T11:06:18.880Z,38.18
2022-08-17T11:11:38.432Z,37.77
2022-08-17T11:16:57.769Z,36.99
2022-08-17T11:22:16.631Z,36.84
2022-08-17T11:27:35.712Z,36.15
2022-08-17T11:36:08.760Z,36.38
2022-08-17T11:38:16.174Z,35.83
2022-08-17T11:48:52.729Z,36.04
2022-08-17T11:54:31.501Z,36.62
2022-08-17T11:59:30.408Z,36.73
2022-08-17T12:04:49.801Z,38.09
2022-08-17T12:10:08.726Z,39.09
2022-08-17T12:15:27.991Z,41.67
2022-08-17T12:24:01.043Z,43.22
2022-08-17T12:36:44.142Z,44.78
2022-08-17T12:45:17.201Z,45.61
2022-08-17T12:47:23.085Z,46.13
2022-08-17T12:52:41.350Z,46.6
2022-08-17T12:58:00.761Z,46.36
2022-08-17T13:03:19.840Z,46.48
2022-08-17T13:08:39.360Z,46.26
2022-08-17T13:13:58.250Z,46.13
2022-08-17T13:19:17.005Z,47.07
2022-08-17T13:24:37.980Z,46.93
2022-08-17T13:29:55.528Z,46.71
2022-08-17T13:35:28.454Z,47.45
2022-08-17T13:40:33.893Z,46.51
2022-08-17T13:45:52.980Z,45.96
2022-08-17T13:51:11.847Z,44.52
2022-08-17T13:56:33.584Z,44.79
2022-08-17T14:01:53.690Z,44.54
2022-08-17T14:07:09.902Z,44.86
2022-08-17T14:12:28.883Z,44.9
2022-08-17T14:17:48.524Z,44.96
2022-08-17T14:23:07.532Z,44.97
2022-08-17T14:28:26.785Z,44.83
2022-08-17T14:33:46.047Z,44.2
2022-08-17T14:39:05.557Z,44.54
2022-08-17T14:44:25.046Z,43.06
2022-08-17T14:49:43.770Z,41.54
2022-08-17T14:55:03.221Z,39.97
2022-08-17T15:00:22.526Z,40.72
2022-08-17T15:05:42.057Z,40.49
2022-08-17T15:11:00.759Z,42.09
2022-08-17T15:16:20.214Z,41.08
2022-08-17T15:21:39.393Z,41.03
2022-08-17T15:30:12.485Z,41.44
2022-08-17T15:32:18.227Z,41.54
2022-08-17T15:42:56.485Z,40.57
2022-08-17T15:48:15.382Z,42.26
2022-08-17T15:53:34.161Z,41.96
2022-08-17T15:58:53.378Z,42.98
2022-08-17T16:04:27.015Z,43.8
2022-08-17T16:04:41.451Z,42.9
2022-08-17T16:09:59.828Z,43.82
2022-08-17T16:18:32.911Z,44.01
2022-08-17T16:22:49.921Z,43.84
2022-08-17T16:31:22.504Z,43.41
2022-08-17T16:36:35.800Z,43.65
2022-08-17T16:45:08.847Z,43.8
2022-08-17T16:57:53.576Z,44.5
2022-08-17T17:06:26.643Z,45.88
2022-08-17T17:08:32.595Z,46.07
2022-08-17T17:13:51.637Z,47.12
2022-08-17T17:19:10.272Z,48.06
2022-08-17T17:24:30.025Z,48.14
2022-08-17T17:29:49.313Z,47.91
2022-08-17T17:35:07.632Z,48.45
2022-08-17T17:40:26.542Z,48.87
2022-08-17T17:45:45.836Z,49.33
2022-08-17T17:51:04.765Z,49.49
2022-08-17T17:56:44.337Z,49.63
2022-08-17T18:01:43.811Z,50.2
2022-08-17T18:07:03.218Z,50.04
2022-08-17T18:12:22.085Z,49.49
2022-08-17T18:17:40.762Z,49.58
2022-08-17T18:22:59.907Z,51.47
2022-08-17T18:28:18.857Z,53.27
2022-08-17T18:33:38.447Z,53.34
2022-08-17T18:42:13.093Z,53.85
2022-08-17T18:46:29.417Z,54.45
2022-08-17T18:49:35.986Z,55.38
2022-08-17T18:54:55.384Z,55.63
2022-08-17T19:00:14.112Z,55.27
2022-08-17T19:05:33.780Z,56.23
2022-08-17T19:10:53.177Z,57.15
2022-08-17T19:16:15.237Z,58.35
2022-08-17T19:21:31.277Z,58.57
2022-08-17T19:26:55.857Z,59.99
2022-08-17T19:32:09.562Z,60.76
2022-08-17T19:37:28.853Z,61.09
2022-08-17T19:42:47.876Z,61.1
2022-08-17T19:48:07.135Z,61.53
2022-08-17T19:53:33.184Z,62.82
2022-08-17T19:58:45.056Z,63.81
2022-08-17T20:04:04.704Z,64.19
2022-08-17T20:09:23.636Z,65.17
2022-08-17T20:14:53.345Z,66.12
2022-08-17T20:20:19.510Z,66.58
2022-08-17T20:25:23.608Z,66.82
2022-08-17T20:30:39.732Z,67.23
2022-08-17T20:39:12.794Z,67.12
2022-08-17T20:41:17.300Z,67.32
2022-08-17T20:46:36.991Z,67.73
2022-08-17T20:52:01.105Z,67.78
2022-08-17T20:57:15.346Z,68.12
2022-08-17T21:05:48.365Z,68.94
2022-08-17T21:07:54.154Z,69.44
2022-08-17T21:18:43.657Z,69.87
2022-08-17T21:23:52.021Z,69.89
2022-08-17T21:29:17.211Z,70.12
2022-08-17T21:34:31.018Z,70.31
2022-08-17T21:39:49.781Z,70.81
2022-08-17T21:45:09.278Z,71.51
2022-08-17T21:50:28.579Z,72.07
2022-08-17T21:55:47.714Z,72.31
2022-08-17T22:01:06.678Z,72.76
2022-08-17T22:06:25.529Z,73.31
2022-08-17T22:11:44.328Z,74.11
2022-08-17T22:17:03.147Z,74.58
2022-08-17T22:22:21.924Z,74.74
2022-08-17T22:27:40.685Z,74.19
2022-08-17T22:32:59.554Z,73.62
2022-08-17T22:38:18.476Z,74.03
2022-08-17T22:43:48.315Z,73.3
2022-08-17T22:48:56.321Z,73.94
2022-08-17T22:54:15.376Z,74.06
2022-08-17T22:59:34.465Z,73.61
2022-08-17T23:04:53.506Z,73.06
2022-08-17T23:10:12.848Z,74.22
2022-08-17T23:15:31.890Z,74.05
2022-08-17T23:20:51.175Z,73.89
2022-08-17T23:29:24.217Z,74.25
2022-08-17T23:31:29.233Z,74.35
2022-08-17T23:36:48.561Z,74.51
2022-08-17T23:42:07.410Z,75.68
2022-08-17T23:47:26.807Z,75.15
2022-08-17T23:52:56.682Z,70.98
2022-08-17T23:58:04.600Z,65.91
